createdAt,value
2022-08-22T00:00:14.250Z,69.07
2022-08-22T00:01:15.111Z,68.97
2022-08-22T00:02:14.299Z,68.97
2022-08-22T00:02:42.056Z,63.50
2022-08-22T00:03:07.176Z,61.61
2022-08-22T00:03:07.476Z,62.85
2022-08-22T00:03:10.107Z,66.60
2022-08-22T00:03:12.110Z,64.87
2022-08-22T00:03:15.030Z,66.70
2022-08-22T00:03:18.442Z,68.77
2022-08-22T00:04:35.228Z,68.97
2022-08-22T00:05:14.198Z,69.17
2022-08-22T00:06:14.234Z,68.87
2022-08-22T00:07:14.191Z,69.46
2022-08-22T00:08:14.143Z,68.97
2022-08-22T00:09:14.146Z,69.17
2022-08-22T00:10:35.156Z,69.56
2022-08-22T00:11:14.109Z,69.56
2022-08-22T00:12:14.120Z,69.56
2022-08-22T00:13:14.126Z,68.87
2022-08-22T00:14:14.082Z,69.07
2022-08-22T00:15:31.570Z,68.97
2022-08-22T00:16:35.082Z,69.07
2022-08-22T00:17:14.050Z,69.46
2022-08-22T00:18:14.021Z,69.36
2022-08-22T00:19:14.011Z,69.26
2022-08-22T00:20:14.030Z,69.26
2022-08-22T00:21:13.986Z,69.26
2022-08-22T00:22:34.972Z,69.46
2022-08-22T00:23:13.991Z,69.26
2022-08-22T00:24:13.952Z,69.56
2022-08-22T00:25:25.653Z,69.36
2022-08-22T00:26:13.935Z,69.07
2022-08-22T00:27:13.914Z,68.97
2022-08-22T00:28:34.907Z,69.17
2022-08-22T00:29:13.931Z,69.26
2022-08-22T00:30:13.885Z,69.17
2022-08-22T00:31:13.895Z,69.36
2022-08-22T00:32:13.856Z,69.07
2022-08-22T00:33:14.625Z,69.26
2022-08-22T00:34:34.855Z,69.46
2022-08-22T00:35:13.810Z,69.07
2022-08-22T00:36:13.819Z,69.26
2022-08-22T00:37:13.786Z,68.87
2022-08-22T00:38:14.672Z,69.36
2022-08-22T00:39:13.797Z,69.46
2022-08-22T00:40:34.744Z,69.46
2022-08-22T00:41:13.750Z,69.46
2022-08-22T00:42:14.633Z,69.26
2022-08-22T00:43:13.706Z,69.36
2022-08-22T00:44:13.714Z,69.36
2022-08-22T00:45:13.688Z,69.26
2022-08-22T00:46:34.671Z,69.26
2022-08-22T00:47:13.694Z,69.17
2022-08-22T00:48:14.567Z,69.17
2022-08-22T00:49:13.640Z,69.07
2022-08-22T00:50:13.619Z,69.07
2022-08-22T00:51:13.609Z,69.07
2022-08-22T00:52:34.612Z,69.17
2022-08-22T00:53:13.588Z,69.26
2022-08-22T00:54:18.041Z,69.85
2022-08-22T00:55:13.597Z,69.75
2022-08-22T00:56:13.547Z,69.56
2022-08-22T00:57:13.553Z,69.36
2022-08-22T00:58:34.541Z,69.56
2022-08-22T00:59:22.924Z,69.56
2022-08-22T01:00:13.522Z,70.04
2022-08-22T01:01:13.532Z,70.04
2022-08-22T01:02:13.482Z,69.85
2022-08-22T01:03:13.501Z,69.95
2022-08-22T01:04:34.480Z,70.24
2022-08-22T01:05:13.462Z,70.04
2022-08-22T01:06:13.426Z,69.85
2022-08-22T01:07:13.411Z,69.85
2022-08-22T01:08:13.424Z,69.85
2022-08-22T01:09:13.381Z,70.34
2022-08-22T01:10:34.382Z,70.43
2022-08-22T01:11:13.399Z,70.34
2022-08-22T01:12:13.347Z,70.53
2022-08-22T01:13:13.339Z,70.40
2022-08-22T01:14:13.319Z,70.34
2022-08-22T01:15:14.148Z,70.43
2022-08-22T01:16:34.319Z,70.98
2022-08-22T01:17:13.280Z,70.89
2022-08-22T01:18:13.287Z,70.89
2022-08-22T01:19:13.336Z,70.89
2022-08-22T01:20:14.180Z,70.89
2022-08-22T01:21:13.259Z,70.89
2022-08-22T01:22:34.217Z,71.18
2022-08-22T01:23:13.220Z,71.28
2022-08-22T01:24:13.222Z,71.08
2022-08-22T01:25:13.192Z,71.08
2022-08-22T01:26:14.167Z,71.37
2022-08-22T01:27:13.150Z,71.67
2022-08-22T01:28:34.150Z,71.47
2022-08-22T01:29:13.163Z,71.57
2022-08-22T01:30:13.113Z,71.96
2022-08-22T01:31:13.126Z,71.83
2022-08-22T01:32:13.097Z,71.77
2022-08-22T01:33:13.088Z,71.73
2022-08-22T01:34:34.165Z,71.83
2022-08-22T01:35:13.055Z,71.73
2022-08-22T01:36:13.062Z,71.83
2022-08-22T01:37:13.067Z,71.86
2022-08-22T01:38:13.025Z,71.73
2022-08-22T01:39:13.023Z,72.31
2022-08-22T01:40:34.024Z,72.02
2022-08-22T01:41:12.987Z,72.31
2022-08-22T01:42:12.994Z,72.61
2022-08-22T01:43:12.947Z,72.51
2022-08-22T01:44:12.959Z,72.61
2022-08-22T01:45:13.018Z,73.00
2022-08-22T01:46:33.931Z,72.71
2022-08-22T01:47:12.929Z,72.71
2022-08-22T01:48:12.945Z,72.90
2022-08-22T01:49:12.895Z,73.29
2022-08-22T01:50:12.872Z,73.58
2022-08-22T01:51:12.843Z,73.39
2022-08-22T01:52:33.842Z,73.39
2022-08-22T01:53:12.816Z,73.00
2022-08-22T01:54:12.816Z,73.10
2022-08-22T01:55:12.821Z,73.29
2022-08-22T01:56:12.784Z,73.68
2022-08-22T01:57:13.672Z,73.39
2022-08-22T01:58:33.782Z,73.49
2022-08-22T01:59:12.754Z,73.49
2022-08-22T02:00:12.753Z,73.19
2022-08-22T02:01:12.773Z,73.00
2022-08-22T02:02:12.731Z,73.19
2022-08-22T02:03:12.689Z,73.00
2022-08-22T02:04:33.683Z,73.39
2022-08-22T02:05:12.737Z,73.49
2022-08-22T02:06:14.376Z,72.80
2022-08-22T02:07:12.658Z,73.00
2022-08-22T02:08:12.661Z,73.10
2022-08-22T02:09:12.617Z,73.00
2022-08-22T02:10:33.617Z,72.51
2022-08-22T02:11:12.613Z,72.71
2022-08-22T02:12:21.365Z,72.71
2022-08-22T02:13:12.596Z,72.71
2022-08-22T02:14:12.551Z,73.13
2022-08-22T02:15:12.551Z,73.00
2022-08-22T02:16:33.553Z,72.51
2022-08-22T02:17:12.515Z,72.71
2022-08-22T02:18:12.521Z,72.71
2022-08-22T02:19:12.493Z,72.61
2022-08-22T02:20:13.075Z,73.19
2022-08-22T02:21:12.478Z,72.61
2022-08-22T02:22:33.549Z,72.12
2022-08-22T02:23:13.199Z,72.41
2022-08-22T02:24:12.464Z,72.71
2022-08-22T02:25:12.419Z,72.28
2022-08-22T02:26:12.429Z,71.80
2022-08-22T02:27:12.390Z,71.80
2022-08-22T02:28:33.394Z,71.89
2022-08-22T02:29:12.393Z,71.80
2022-08-22T02:30:12.353Z,71.89
2022-08-22T02:31:16.825Z,71.76
2022-08-22T02:32:12.339Z,71.95
2022-08-22T02:33:12.315Z,71.66
2022-08-22T02:34:34.196Z,72.15
2022-08-22T02:35:12.283Z,71.86
2022-08-22T02:36:12.286Z,71.95
2022-08-22T02:37:12.296Z,71.95
2022-08-22T02:38:12.247Z,71.95
2022-08-22T02:39:12.256Z,71.76
2022-08-22T02:40:33.252Z,72.05
2022-08-22T02:41:12.216Z,71.86
2022-08-22T02:42:12.231Z,71.56
2022-08-22T02:43:12.183Z,71.62
2022-08-22T02:44:12.191Z,71.43
2022-08-22T02:45:12.159Z,71.23
2022-08-22T02:46:33.139Z,71.43
2022-08-22T02:47:12.159Z,71.62
2022-08-22T02:48:12.108Z,71.50
2022-08-22T02:49:12.696Z,71.78
2022-08-22T02:50:12.816Z,71.40
2022-08-22T02:51:12.082Z,71.40
2022-08-22T02:52:33.081Z,71.30
2022-08-22T02:53:12.044Z,70.81
2022-08-22T02:54:12.053Z,71.07
2022-08-22T02:55:12.013Z,70.97
2022-08-22T02:56:12.018Z,70.87
2022-08-22T02:57:14.163Z,70.87
2022-08-22T02:58:32.975Z,70.97
2022-08-22T02:59:11.982Z,70.87
2022-08-22T03:00:31.352Z,71.07
2022-08-22T03:01:12.016Z,70.84
2022-08-22T03:02:11.958Z,70.94
2022-08-22T03:03:11.913Z,71.13
2022-08-22T03:04:32.900Z,71.03
2022-08-22T03:05:11.875Z,71.13
2022-08-22T03:06:11.877Z,71.13
2022-08-22T03:07:11.885Z,71.29
2022-08-22T03:08:13.153Z,71.10
2022-08-22T03:09:11.848Z,71.20
2022-08-22T03:10:32.847Z,71.29
2022-08-22T03:11:11.816Z,71.48
2022-08-22T03:12:11.798Z,71.48
2022-08-22T03:13:11.784Z,71.20
2022-08-22T03:14:11.771Z,71.29
2022-08-22T03:15:11.734Z,71.06
2022-08-22T03:16:32.735Z,71.10
2022-08-22T03:17:11.706Z,70.71
2022-08-22T03:18:12.212Z,70.48
2022-08-22T03:19:16.171Z,70.57
2022-08-22T03:20:12.229Z,70.67
2022-08-22T03:21:11.696Z,70.67
2022-08-22T03:22:32.673Z,70.48
2022-08-22T03:23:12.253Z,70.93
2022-08-22T03:24:11.601Z,70.64
2022-08-22T03:25:11.598Z,70.83
2022-08-22T03:26:11.613Z,70.83
2022-08-22T03:27:11.576Z,70.64
2022-08-22T03:28:32.564Z,70.83
2022-08-22T03:29:11.542Z,70.70
2022-08-22T03:30:11.539Z,70.64
2022-08-22T03:31:11.552Z,70.41
2022-08-22T03:32:11.507Z,70.31
2022-08-22T03:33:11.507Z,70.51
2022-08-22T03:34:32.494Z,69.93
2022-08-22T03:35:11.467Z,69.64
2022-08-22T03:36:11.437Z,69.54
2022-08-22T03:37:11.433Z,69.79
2022-08-22T03:38:11.430Z,69.79
2022-08-22T03:39:17.166Z,69.79
2022-08-22T03:40:32.391Z,69.99
2022-08-22T03:41:11.362Z,69.99
2022-08-22T03:42:12.226Z,69.50
2022-08-22T03:43:11.368Z,69.31
2022-08-22T03:44:11.383Z,69.02
2022-08-22T03:45:11.316Z,69.37
2022-08-22T03:46:32.300Z,69.67
2022-08-22T03:47:12.266Z,69.85
2022-08-22T03:48:11.252Z,69.47
2022-08-22T03:49:11.258Z,69.76
2022-08-22T03:50:11.252Z,69.37
2022-08-22T03:51:11.214Z,70.05
2022-08-22T03:52:32.731Z,70.05
2022-08-22T03:53:19.125Z,70.05
2022-08-22T03:54:11.178Z,69.95
2022-08-22T03:55:11.148Z,69.85
2022-08-22T03:56:11.140Z,69.95
2022-08-22T03:57:11.150Z,69.85
2022-08-22T03:58:32.102Z,69.95
2022-08-22T03:59:11.123Z,69.95
2022-08-22T04:00:11.068Z,69.95
2022-08-22T04:01:11.119Z,70.25
2022-08-22T04:02:42.133Z,70.15
2022-08-22T04:03:11.041Z,70.34
2022-08-22T04:04:32.039Z,69.95
2022-08-22T04:05:11.006Z,70.05
2022-08-22T04:06:11.524Z,70.15
2022-08-22T04:07:28.304Z,69.95
2022-08-22T04:08:13.003Z,70.05
2022-08-22T04:09:10.943Z,69.95
2022-08-22T04:10:31.936Z,70.05
2022-08-22T04:11:10.938Z,70.05
2022-08-22T04:12:10.908Z,70.15
2022-08-22T04:13:10.904Z,70.15
2022-08-22T04:14:10.856Z,70.25
2022-08-22T04:15:10.864Z,70.34
2022-08-22T04:16:31.872Z,69.85
2022-08-22T04:17:10.831Z,69.76
2022-08-22T04:18:10.848Z,69.85
2022-08-22T04:19:11.764Z,70.15
2022-08-22T04:20:10.810Z,70.25
2022-08-22T04:21:10.759Z,70.15
2022-08-22T04:22:31.748Z,70.34
2022-08-22T04:23:10.737Z,70.28
2022-08-22T04:24:10.722Z,70.28
2022-08-22T04:25:10.736Z,70.09
2022-08-22T04:26:12.245Z,70.09
2022-08-22T04:27:10.703Z,69.41
2022-08-22T04:28:31.669Z,69.37
2022-08-22T04:29:10.661Z,69.41
2022-08-22T04:30:10.622Z,69.85
2022-08-22T04:31:10.614Z,69.85
2022-08-22T04:32:14.414Z,70.05
2022-08-22T04:33:10.582Z,69.99
2022-08-22T04:34:32.259Z,69.95
2022-08-22T04:35:10.544Z,70.15
2022-08-22T04:36:10.550Z,70.05
2022-08-22T04:37:10.668Z,69.85
2022-08-22T04:38:11.284Z,69.95
2022-08-22T04:39:10.518Z,69.85
2022-08-22T04:40:31.470Z,70.05
2022-08-22T04:41:10.481Z,70.15
2022-08-22T04:42:31.138Z,70.05
2022-08-22T04:43:10.459Z,70.05
2022-08-22T04:44:10.406Z,69.95
2022-08-22T04:45:10.408Z,70.25
2022-08-22T04:46:36.695Z,70.25
2022-08-22T04:47:11.281Z,70.01
2022-08-22T04:48:10.387Z,69.92
2022-08-22T04:49:11.263Z,70.01
2022-08-22T04:50:10.342Z,70.11
2022-08-22T04:51:10.295Z,70.50
2022-08-22T04:52:31.290Z,70.40
2022-08-22T04:53:10.310Z,70.60
2022-08-22T04:54:10.262Z,70.40
2022-08-22T04:55:10.242Z,70.31
2022-08-22T04:56:10.239Z,70.31
2022-08-22T04:57:10.236Z,70.60
2022-08-22T04:58:31.228Z,70.50
2022-08-22T04:59:10.193Z,70.66
2022-08-22T05:00:10.153Z,70.47
2022-08-22T05:01:10.773Z,70.86
2022-08-22T05:02:10.208Z,70.66
2022-08-22T05:03:10.114Z,70.76
2022-08-22T05:04:31.126Z,70.66
2022-08-22T05:05:13.094Z,70.95
2022-08-22T05:06:10.086Z,71.44
2022-08-22T05:07:10.047Z,71.40
2022-08-22T05:08:10.047Z,71.53
2022-08-22T05:09:12.973Z,71.34
2022-08-22T05:10:31.001Z,71.50
2022-08-22T05:11:10.023Z,71.44
2022-08-22T05:12:09.984Z,71.24
2022-08-22T05:13:10.049Z,71.34
2022-08-22T05:14:09.980Z,71.44
2022-08-22T05:15:09.944Z,71.44
2022-08-22T05:16:30.951Z,71.72
2022-08-22T05:17:09.914Z,71.44
2022-08-22T05:18:09.956Z,71.62
2022-08-22T05:19:13.216Z,71.62
2022-08-22T05:20:09.880Z,71.44
2022-08-22T05:21:11.135Z,71.53
2022-08-22T05:22:30.832Z,71.92
2022-08-22T05:23:17.659Z,71.44
2022-08-22T05:24:09.802Z,71.44
2022-08-22T05:25:09.814Z,71.37
2022-08-22T05:26:09.758Z,71.37
2022-08-22T05:27:09.746Z,71.37
2022-08-22T05:28:30.718Z,71.47
2022-08-22T05:29:09.736Z,71.56
2022-08-22T05:30:09.688Z,71.28
2022-08-22T05:31:09.689Z,71.47
2022-08-22T05:32:09.661Z,71.28
2022-08-22T05:33:10.382Z,71.47
2022-08-22T05:34:30.661Z,71.37
2022-08-22T05:35:09.684Z,71.28
2022-08-22T05:36:09.606Z,71.47
2022-08-22T05:37:09.595Z,71.37
2022-08-22T05:38:09.604Z,71.66
2022-08-22T05:39:09.553Z,71.28
2022-08-22T05:40:30.550Z,71.56
2022-08-22T05:41:09.542Z,71.47
2022-08-22T05:42:10.336Z,71.37
2022-08-22T05:43:09.517Z,71.28
2022-08-22T05:44:09.530Z,71.56
2022-08-22T05:45:11.555Z,71.47
2022-08-22T05:46:30.479Z,71.47
2022-08-22T05:47:10.320Z,71.28
2022-08-22T05:48:09.436Z,71.12
2022-08-22T05:49:09.409Z,71.31
2022-08-22T05:50:09.403Z,71.12
2022-08-22T05:51:09.392Z,71.28
2022-08-22T05:52:31.292Z,71.02
2022-08-22T05:53:09.341Z,71.02
2022-08-22T05:54:09.341Z,71.22
2022-08-22T05:55:09.317Z,71.22
2022-08-22T05:56:11.812Z,71.12
2022-08-22T05:57:09.322Z,71.12
2022-08-22T05:58:30.267Z,71.12
2022-08-22T05:59:09.261Z,71.12
2022-08-22T06:00:09.244Z,71.12
2022-08-22T06:01:10.277Z,71.22
2022-08-22T06:02:09.273Z,71.12
2022-08-22T06:03:09.199Z,71.12
2022-08-22T06:04:30.205Z,71.06
2022-08-22T06:05:12.022Z,71.15
2022-08-22T06:06:09.161Z,71.34
2022-08-22T06:07:09.125Z,71.25
2022-08-22T06:08:09.135Z,70.96
2022-08-22T06:09:09.124Z,70.96
2022-08-22T06:10:30.088Z,70.67
2022-08-22T06:11:09.100Z,70.57
2022-08-22T06:12:10.844Z,70.76
2022-08-22T06:13:11.403Z,70.76
2022-08-22T06:14:09.024Z,70.67
2022-08-22T06:15:11.655Z,70.67
2022-08-22T06:16:30.037Z,70.76
2022-08-22T06:17:08.983Z,70.57
2022-08-22T06:18:09.080Z,70.57
2022-08-22T06:19:19.002Z,70.57
2022-08-22T06:20:08.961Z,70.76
2022-08-22T06:21:08.911Z,70.67
2022-08-22T06:22:29.909Z,70.76
2022-08-22T06:23:08.890Z,70.37
2022-08-22T06:24:09.814Z,70.57
2022-08-22T06:25:08.898Z,70.67
2022-08-22T06:26:20.863Z,70.76
2022-08-22T06:27:08.835Z,70.76
2022-08-22T06:28:29.839Z,70.76
2022-08-22T06:29:09.333Z,70.96
2022-08-22T06:30:08.819Z,70.96
2022-08-22T06:31:08.815Z,70.96
2022-08-22T06:32:08.787Z,70.90
2022-08-22T06:33:12.348Z,70.80
2022-08-22T06:34:29.733Z,70.90
2022-08-22T06:35:08.754Z,70.99
2022-08-22T06:36:08.704Z,70.80
2022-08-22T06:37:08.709Z,70.61
2022-08-22T06:38:08.666Z,70.90
2022-08-22T06:39:09.338Z,70.70
2022-08-22T06:40:29.671Z,70.70
2022-08-22T06:41:08.646Z,70.80
2022-08-22T06:42:10.346Z,70.80
2022-08-22T06:43:08.596Z,70.70
2022-08-22T06:44:08.603Z,70.70
2022-08-22T06:45:08.557Z,70.80
2022-08-22T06:46:29.581Z,70.90
2022-08-22T06:47:08.556Z,70.90
2022-08-22T06:48:09.362Z,70.93
2022-08-22T06:49:08.544Z,70.99
2022-08-22T06:50:13.947Z,70.90
2022-08-22T06:51:08.493Z,70.99
2022-08-22T06:52:29.488Z,70.93
2022-08-22T06:53:08.478Z,70.83
2022-08-22T06:54:08.477Z,70.73
2022-08-22T06:55:08.433Z,70.93
2022-08-22T06:56:08.760Z,71.12
2022-08-22T06:57:08.400Z,70.73
2022-08-22T06:58:34.294Z,70.54
2022-08-22T06:59:08.358Z,70.73
2022-08-22T07:00:08.354Z,70.64
2022-08-22T07:01:11.755Z,70.48
2022-08-22T07:02:08.381Z,70.77
2022-08-22T07:03:08.337Z,70.57
2022-08-22T07:04:29.317Z,70.67
2022-08-22T07:05:08.288Z,70.39
2022-08-22T07:06:08.255Z,70.39
2022-08-22T07:07:08.871Z,70.57
2022-08-22T07:08:08.265Z,70.48
2022-08-22T07:09:08.212Z,70.57
2022-08-22T07:10:29.220Z,70.67
2022-08-22T07:11:08.298Z,70.48
2022-08-22T07:12:08.871Z,70.39
2022-08-22T07:13:08.198Z,70.51
2022-08-22T07:14:08.150Z,70.32
2022-08-22T07:15:08.143Z,70.42
2022-08-22T07:16:29.137Z,70.32
2022-08-22T07:17:08.124Z,70.03
2022-08-22T07:18:08.795Z,70.22
2022-08-22T07:19:08.086Z,70.16
2022-08-22T07:20:08.071Z,70.16
2022-08-22T07:21:08.149Z,69.96
2022-08-22T07:22:29.855Z,69.96
2022-08-22T07:23:08.027Z,69.87
2022-08-22T07:24:08.010Z,69.77
2022-08-22T07:25:08.040Z,69.67
2022-08-22T07:26:07.980Z,69.77
2022-08-22T07:27:08.053Z,69.58
2022-08-22T07:28:37.158Z,69.67
2022-08-22T07:29:11.291Z,69.90
2022-08-22T07:30:10.023Z,69.90
2022-08-22T07:31:07.907Z,69.51
2022-08-22T07:32:07.922Z,69.61
2022-08-22T07:33:26.105Z,69.81
2022-08-22T07:34:28.926Z,69.81
2022-08-22T07:35:07.900Z,69.71
2022-08-22T07:36:07.903Z,69.90
2022-08-22T07:37:07.817Z,70.10
2022-08-22T07:38:07.837Z,69.71
2022-08-22T07:39:07.809Z,69.61
2022-08-22T07:40:28.807Z,69.32
2022-08-22T07:41:07.776Z,69.26
2022-08-22T07:42:07.781Z,69.16
2022-08-22T07:43:07.794Z,69.35
2022-08-22T07:44:07.734Z,69.35
2022-08-22T07:45:07.707Z,69.58
2022-08-22T07:46:28.724Z,69.78
2022-08-22T07:47:07.710Z,69.58
2022-08-22T07:48:07.722Z,69.68
2022-08-22T07:49:09.605Z,69.10
2022-08-22T07:50:07.681Z,69.13
2022-08-22T07:51:07.701Z,69.13
2022-08-22T07:52:29.387Z,69.23
2022-08-22T07:53:07.654Z,69.42
2022-08-22T07:54:07.686Z,68.93
2022-08-22T07:55:07.675Z,68.93
2022-08-22T07:56:07.679Z,68.93
2022-08-22T07:57:07.575Z,68.93
2022-08-22T07:58:28.542Z,69.07
2022-08-22T07:59:12.745Z,68.87
2022-08-22T08:00:07.581Z,68.97
2022-08-22T08:01:07.544Z,68.97
2022-08-22T08:02:08.373Z,69.26
2022-08-22T08:03:07.476Z,69.26
2022-08-22T08:04:28.519Z,68.71
2022-08-22T08:05:07.530Z,69.10
2022-08-22T08:06:07.467Z,68.90
2022-08-22T08:07:08.371Z,68.52
2022-08-22T08:08:07.409Z,68.62
2022-08-22T08:09:07.450Z,68.23
2022-08-22T08:10:28.401Z,68.23
2022-08-22T08:11:07.389Z,68.23
2022-08-22T08:12:07.371Z,68.13
2022-08-22T08:13:07.371Z,68.52
2022-08-22T08:14:07.405Z,68.16
2022-08-22T08:15:07.336Z,68.26
2022-08-22T08:16:28.334Z,68.35
2022-08-22T08:17:07.293Z,68.16
2022-08-22T08:18:07.339Z,68.19
2022-08-22T08:19:07.292Z,68.29
2022-08-22T08:20:07.269Z,68.00
2022-08-22T08:21:07.277Z,67.90
2022-08-22T08:22:28.326Z,68.19
2022-08-22T08:23:07.912Z,67.93
2022-08-22T08:24:07.213Z,67.44
2022-08-22T08:25:07.200Z,67.64
2022-08-22T08:26:07.194Z,67.54
2022-08-22T08:27:07.234Z,67.68
2022-08-22T08:28:28.168Z,67.38
2022-08-22T08:29:07.403Z,66.89
2022-08-22T08:30:07.310Z,67.19
2022-08-22T08:31:07.135Z,67.09
2022-08-22T08:32:07.184Z,66.99
2022-08-22T08:33:26.008Z,66.93
2022-08-22T08:34:28.117Z,66.73
2022-08-22T08:35:07.128Z,66.83
2022-08-22T08:36:07.891Z,66.27
2022-08-22T08:37:07.096Z,66.47
2022-08-22T08:38:07.070Z,65.30
2022-08-22T08:39:07.041Z,65.59
2022-08-22T08:40:28.108Z,65.03
2022-08-22T08:41:07.024Z,64.74
2022-08-22T08:42:07.007Z,65.03
2022-08-22T08:43:09.012Z,65.33
2022-08-22T08:44:07.202Z,65.16
2022-08-22T08:45:07.035Z,65.06
2022-08-22T08:46:28.073Z,65.59
2022-08-22T08:47:06.960Z,64.90
2022-08-22T08:48:06.940Z,64.61
2022-08-22T08:49:06.944Z,64.02
2022-08-22T08:50:06.970Z,64.31
2022-08-22T08:51:06.930Z,64.15
2022-08-22T08:52:27.923Z,63.95
2022-08-22T08:53:06.934Z,63.49
2022-08-22T08:54:06.881Z,63.59
2022-08-22T08:55:22.068Z,63.30
2022-08-22T08:56:06.845Z,63.10
2022-08-22T08:57:06.851Z,63.53
2022-08-22T08:58:27.855Z,62.84
2022-08-22T08:59:09.951Z,63.23
2022-08-22T09:00:06.806Z,62.54
2022-08-22T09:01:06.862Z,62.74
2022-08-22T09:02:06.896Z,62.57
2022-08-22T09:03:07.291Z,63.26
2022-08-22T09:04:27.765Z,62.94
2022-08-22T09:05:06.752Z,62.15
2022-08-22T09:06:06.758Z,62.45
2022-08-22T09:07:06.739Z,62.57
2022-08-22T09:08:06.728Z,62.64
2022-08-22T09:09:06.730Z,62.64
2022-08-22T09:10:29.379Z,62.74
2022-08-22T09:11:09.723Z,62.97
2022-08-22T09:12:06.731Z,62.97
2022-08-22T09:13:12.143Z,62.77
2022-08-22T09:14:06.665Z,63.00
2022-08-22T09:15:11.847Z,63.00
2022-08-22T09:16:27.670Z,62.41
2022-08-22T09:17:06.853Z,62.02
2022-08-22T09:18:06.664Z,61.82
2022-08-22T09:19:06.616Z,61.04
2022-08-22T09:20:15.403Z,60.94
2022-08-22T09:21:07.427Z,60.87
2022-08-22T09:22:27.608Z,60.77
2022-08-22T09:23:10.047Z,60.58
2022-08-22T09:24:06.629Z,60.47
2022-08-22T09:25:06.594Z,60.58
2022-08-22T09:26:06.545Z,60.58
2022-08-22T09:27:08.792Z,60.38
2022-08-22T09:28:28.370Z,60.31
2022-08-22T09:29:06.533Z,59.82
2022-08-22T09:30:06.601Z,59.23
2022-08-22T09:31:21.142Z,59.42
2022-08-22T09:32:06.554Z,59.62
2022-08-22T09:33:07.423Z,59.33
2022-08-22T09:34:28.425Z,59.33
2022-08-22T09:35:06.592Z,59.42
2022-08-22T09:36:06.480Z,59.36
2022-08-22T09:37:06.483Z,59.16
2022-08-22T09:38:06.438Z,59.26
2022-08-22T09:39:06.466Z,59.06
2022-08-22T09:41:06.403Z,58.96
2022-08-22T09:42:06.416Z,59.36
2022-08-22T09:43:06.445Z,58.94
2022-08-22T09:44:06.391Z,59.33
2022-08-22T09:45:06.384Z,59.23
2022-08-22T09:46:31.612Z,59.23
2022-08-22T09:47:06.346Z,59.23
2022-08-22T09:48:07.662Z,59.26
2022-08-22T09:49:06.589Z,58.96
2022-08-22T09:50:06.364Z,59.06
2022-08-22T09:51:31.722Z,59.26
2022-08-22T09:52:33.031Z,58.96
2022-08-22T09:53:06.283Z,58.86
2022-08-22T09:54:06.287Z,59.06
2022-08-22T09:55:07.982Z,58.89
2022-08-22T09:56:15.042Z,58.37
2022-08-22T09:57:06.275Z,57.91
2022-08-22T09:58:27.888Z,57.71
2022-08-22T09:59:06.674Z,57.81
2022-08-22T10:00:06.271Z,57.42
2022-08-22T10:01:06.298Z,57.22
2022-08-22T10:02:06.307Z,57.45
2022-08-22T10:03:06.323Z,57.05
2022-08-22T10:04:27.212Z,57.25
2022-08-22T10:05:07.021Z,56.07
2022-08-22T10:06:06.430Z,56.37
2022-08-22T10:07:11.651Z,55.77
2022-08-22T10:08:06.182Z,55.58
2022-08-22T10:09:06.198Z,55.38
2022-08-22T10:10:27.145Z,55.18
2022-08-22T10:11:06.592Z,55.48
2022-08-22T10:12:06.114Z,55.08
2022-08-22T10:13:10.327Z,54.69
2022-08-22T10:14:06.157Z,54.91
2022-08-22T10:15:06.881Z,54.82
2022-08-22T10:16:27.130Z,55.08
2022-08-22T10:17:07.275Z,55.01
2022-08-22T10:18:06.971Z,54.89
2022-08-22T10:19:06.061Z,55.01
2022-08-22T10:20:06.055Z,55.31
2022-08-22T10:21:06.994Z,55.41
2022-08-22T10:22:30.219Z,55.11
2022-08-22T10:23:06.041Z,54.91
2022-08-22T10:24:07.209Z,54.91
2022-08-22T10:25:06.027Z,55.01
2022-08-22T10:26:05.992Z,55.33
2022-08-22T10:27:06.001Z,54.43
2022-08-22T10:28:28.520Z,54.25
2022-08-22T10:29:06.008Z,54.25
2022-08-22T10:30:05.978Z,53.56
2022-08-22T10:31:06.519Z,53.36
2022-08-22T10:32:14.418Z,52.68
2022-08-22T10:33:05.941Z,53.07
2022-08-22T10:34:26.936Z,53.36
2022-08-22T10:35:06.370Z,53.17
2022-08-22T10:36:05.931Z,53.17
2022-08-22T10:37:05.919Z,53.17
2022-08-22T10:38:05.905Z,53.17
2022-08-22T10:39:09.485Z,53.56
2022-08-22T10:40:26.915Z,53.66
2022-08-22T10:41:09.638Z,53.66
2022-08-22T10:42:05.859Z,53.76
2022-08-22T10:43:05.866Z,53.56
2022-08-22T10:44:05.853Z,53.27
2022-08-22T10:45:05.861Z,53.36
2022-08-22T10:46:26.862Z,53.47
2022-08-22T10:47:05.829Z,52.78
2022-08-22T10:48:09.789Z,53.17
2022-08-22T10:49:08.202Z,52.97
2022-08-22T10:50:08.677Z,52.68
2022-08-22T10:51:08.692Z,52.87
2022-08-22T10:52:26.908Z,52.97
2022-08-22T10:53:05.767Z,52.97
2022-08-22T10:54:05.790Z,52.48
2022-08-22T10:55:09.654Z,52.97
2022-08-22T10:56:05.740Z,52.97
2022-08-22T10:57:06.822Z,53.07
2022-08-22T10:58:26.757Z,53.07
2022-08-22T10:59:05.710Z,52.97
2022-08-22T11:00:05.715Z,52.68
2022-08-22T11:01:38.120Z,52.97
2022-08-22T11:02:05.762Z,52.97
2022-08-22T11:03:08.756Z,53.47
2022-08-22T11:04:28.002Z,53.17
2022-08-22T11:05:05.650Z,53.14
2022-08-22T11:06:05.653Z,53.34
2022-08-22T11:07:05.660Z,53.44
2022-08-22T11:08:05.715Z,53.74
2022-08-22T11:09:05.619Z,53.24
2022-08-22T11:10:26.647Z,53.74
2022-08-22T11:11:05.665Z,53.54
2022-08-22T11:12:05.591Z,53.44
2022-08-22T11:13:05.642Z,53.83
2022-08-22T11:14:05.646Z,53.74
2022-08-22T11:15:05.599Z,53.83
2022-08-22T11:16:26.605Z,53.64
2022-08-22T11:17:11.988Z,53.14
2022-08-22T11:18:05.583Z,53.14
2022-08-22T11:19:15.318Z,53.34
2022-08-22T11:20:05.542Z,53.74
2022-08-22T11:21:07.334Z,53.64
2022-08-22T11:22:26.542Z,53.44
2022-08-22T11:23:05.499Z,53.64
2022-08-22T11:24:05.506Z,53.44
2022-08-22T11:25:05.486Z,52.95
2022-08-22T11:26:05.515Z,52.85
2022-08-22T11:27:07.388Z,52.85
2022-08-22T11:28:26.480Z,52.75
2022-08-22T11:29:13.607Z,53.05
2022-08-22T11:30:06.025Z,52.97
2022-08-22T11:31:07.167Z,52.97
2022-08-22T11:32:05.983Z,52.78
2022-08-22T11:33:05.527Z,52.78
2022-08-22T11:34:26.424Z,52.19
2022-08-22T11:35:09.084Z,52.68
2022-08-22T11:36:05.397Z,52.68
2022-08-22T11:37:11.735Z,52.48
2022-08-22T11:38:05.400Z,52.58
2022-08-22T11:39:05.373Z,51.92
2022-08-22T11:40:26.389Z,52.19
2022-08-22T11:41:05.424Z,51.81
2022-08-22T11:42:05.338Z,51.12
2022-08-22T11:43:06.410Z,51.62
2022-08-22T11:44:05.344Z,51.62
2022-08-22T11:45:05.372Z,51.32
2022-08-22T11:46:26.298Z,51.03
2022-08-22T11:47:05.322Z,50.44
2022-08-22T11:48:05.352Z,49.75
2022-08-22T11:49:05.274Z,49.75
2022-08-22T11:50:10.759Z,49.75
2022-08-22T11:51:13.327Z,49.75
2022-08-22T11:52:26.245Z,50.54
2022-08-22T11:53:07.587Z,50.24
2022-08-22T11:54:05.269Z,50.71
2022-08-22T11:55:05.223Z,50.21
2022-08-22T11:56:05.527Z,50.24
2022-08-22T11:57:05.261Z,49.73
2022-08-22T11:58:29.267Z,49.82
2022-08-22T11:59:05.192Z,50.12
2022-08-22T12:00:05.176Z,49.92
2022-08-22T12:01:05.239Z,50.34
2022-08-22T12:02:05.195Z,50.42
2022-08-22T12:03:05.170Z,50.34
2022-08-22T12:04:27.033Z,50.54
2022-08-22T12:05:05.134Z,50.61
2022-08-22T12:06:05.154Z,50.71
2022-08-22T12:07:05.118Z,50.34
2022-08-22T12:08:05.108Z,50.51
2022-08-22T12:09:05.110Z,50.31
2022-08-22T12:10:26.109Z,50.21
2022-08-22T12:11:05.076Z,50.31
2022-08-22T12:12:05.078Z,50.44
2022-08-22T12:13:05.086Z,50.34
2022-08-22T12:14:06.410Z,50.73
2022-08-22T12:15:05.052Z,50.14
2022-08-22T12:16:26.053Z,50.04
2022-08-22T12:17:05.104Z,49.45
2022-08-22T12:18:05.018Z,49.55
2022-08-22T12:19:05.027Z,49.75
2022-08-22T12:20:18.943Z,49.57
2022-08-22T12:21:05.012Z,49.67
2022-08-22T12:22:26.042Z,49.38
2022-08-22T12:23:05.769Z,49.67
2022-08-22T12:24:06.226Z,49.18
2022-08-22T12:25:04.965Z,49.57
2022-08-22T12:26:05.027Z,49.65
2022-08-22T12:27:07.859Z,49.65
2022-08-22T12:28:25.968Z,49.45
2022-08-22T12:29:04.942Z,49.85
2022-08-22T12:30:04.937Z,49.65
2022-08-22T12:31:04.907Z,49.35
2022-08-22T12:32:04.902Z,49.55
2022-08-22T12:33:04.919Z,49.26
2022-08-22T12:34:25.919Z,49.95
2022-08-22T12:35:14.338Z,49.85
2022-08-22T12:36:04.924Z,49.45
2022-08-22T12:37:04.899Z,49.35
2022-08-22T12:38:27.971Z,49.85
2022-08-22T12:39:04.843Z,49.85
2022-08-22T12:40:26.285Z,50.04
2022-08-22T12:41:08.190Z,50.54
2022-08-22T12:42:04.819Z,50.24
2022-08-22T12:43:06.488Z,50.24
2022-08-22T12:44:04.803Z,50.14
2022-08-22T12:45:04.787Z,50.14
2022-08-22T12:46:28.225Z,50.54
2022-08-22T12:47:04.848Z,50.14